sensor_id;sensor_type;location;lat;lon;timestamp;temperature;humidity
72772;SHT30;60894;42.544;1.516;2023-07-24T00:01:08;22.21;59.84
72772;SHT30;60894;42.544;1.516;2023-07-24T00:03:35;22.45;58.17
72772;SHT30;60894;42.544;1.516;2023-07-24T00:06:02;22.31;59.77
72772;SHT30;60894;42.544;1.516;2023-07-24T00:08:29;22.06;60.65
72772;SHT30;60894;42.544;1.516;2023-07-24T00:10:56;22.11;60.18
72772;SHT30;60894;42.544;1.516;2023-07-24T00:13:24;21.87;61.42
72772;SHT30;60894;42.544;1.516;2023-07-24T00:15:51;21.87;61.59
72772;SHT30;60894;42.544;1.516;2023-07-24T00:18:19;21.77;61.39
72772;SHT30;60894;42.544;1.516;2023-07-24T00:20:46;21.80;61.67
72772;SHT30;60894;42.544;1.516;2023-07-24T00:23:13;21.70;61.90
72772;SHT30;60894;42.544;1.516;2023-07-24T00:25:40;21.71;61.93
72772;SHT30;60894;42.544;1.516;2023-07-24T00:28:07;22.00;60.74
72772;SHT30;60894;42.544;1.516;2023-07-24T00:30:34;21.90;61.68
72772;SHT30;60894;42.544;1.516;2023-07-24T00:33:01;21.71;62.37
72772;SHT30;60894;42.544;1.516;2023-07-24T00:35:30;21.50;62.97
72772;SHT30;60894;42.544;1.516;2023-07-24T00:37:57;21.53;63.10
72772;SHT30;60894;42.544;1.516;2023-07-24T00:40:24;21.71;60.62
72772;SHT30;60894;42.544;1.516;2023-07-24T00:42:51;21.80;61.91
72772;SHT30;60894;42.544;1.516;2023-07-24T00:45:18;21.71;62.21
72772;SHT30;60894;42.544;1.516;2023-07-24T00:47:46;21.84;61.40
72772;SHT30;60894;42.544;1.516;2023-07-24T00:50:13;21.80;61.35
72772;SHT30;60894;42.544;1.516;2023-07-24T00:52:42;21.84;61.64
72772;SHT30;60894;42.544;1.516;2023-07-24T00:55:10;21.61;62.66
72772;SHT30;60894;42.544;1.516;2023-07-24T00:57:39;21.58;62.62
72772;SHT30;60894;42.544;1.516;2023-07-24T01:00:07;21.51;63.50
72772;SHT30;60894;42.544;1.516;2023-07-24T01:02:35;21.51;63.12
72772;SHT30;60894;42.544;1.516;2023-07-24T01:05:02;21.57;62.66
72772;SHT30;60894;42.544;1.516;2023-07-24T01:07:29;21.58;62.60
72772;SHT30;60894;42.544;1.516;2023-07-24T01:09:58;21.67;62.40
72772;SHT30;60894;42.544;1.516;2023-07-24T01:12:30;21.74;62.32
72772;SHT30;60894;42.544;1.516;2023-07-24T01:15:02;21.49;63.19
72772;SHT30;60894;42.544;1.516;2023-07-24T01:17:31;21.49;62.86
72772;SHT30;60894;42.544;1.516;2023-07-24T01:20:01;21.44;63.32
72772;SHT30;60894;42.544;1.516;2023-07-24T01:22:38;21.34;63.80
72772;SHT30;60894;42.544;1.516;2023-07-24T01:25:18;21.54;62.08
72772;SHT30;60894;42.544;1.516;2023-07-24T01:27:51;21.58;61.87
72772;SHT30;60894;42.544;1.516;2023-07-24T01:30:19;21.44;64.34
72772;SHT30;60894;42.544;1.516;2023-07-24T01:32:46;21.43;63.09
72772;SHT30;60894;42.544;1.516;2023-07-24T01:35:13;21.33;63.75
72772;SHT30;60894;42.544;1.516;2023-07-24T01:37:42;21.34;63.98
72772;SHT30;60894;42.544;1.516;2023-07-24T01:40:10;21.18;64.67
72772;SHT30;60894;42.544;1.516;2023-07-24T01:42:38;21.13;65.38
72772;SHT30;60894;42.544;1.516;2023-07-24T01:45:08;21.14;65.59
72772;SHT30;60894;42.544;1.516;2023-07-24T01:47:36;20.99;65.45
72772;SHT30;60894;42.544;1.516;2023-07-24T01:50:04;21.14;64.42
72772;SHT30;60894;42.544;1.516;2023-07-24T01:52:31;20.91;66.80
72772;SHT30;60894;42.544;1.516;2023-07-24T01:54:59;20.71;66.87
72772;SHT30;60894;42.544;1.516;2023-07-24T01:57:26;21.00;65.35
72772;SHT30;60894;42.544;1.516;2023-07-24T01:59:53;20.92;66.63
72772;SHT30;60894;42.544;1.516;2023-07-24T02:02:21;21.02;65.70
72772;SHT30;60894;42.544;1.516;2023-07-24T02:04:48;20.93;67.44
72772;SHT30;60894;42.544;1.516;2023-07-24T02:07:15;20.89;66.52
72772;SHT30;60894;42.544;1.516;2023-07-24T02:09:42;20.89;66.48
72772;SHT30;60894;42.544;1.516;2023-07-24T02:12:09;20.86;66.11
72772;SHT30;60894;42.544;1.516;2023-07-24T02:14:36;20.68;68.18
72772;SHT30;60894;42.544;1.516;2023-07-24T02:17:04;20.47;70.29
72772;SHT30;60894;42.544;1.516;2023-07-24T02:19:32;20.48;68.78
72772;SHT30;60894;42.544;1.516;2023-07-24T02:21:59;20.55;68.79
72772;SHT30;60894;42.544;1.516;2023-07-24T02:24:26;20.61;68.64
72772;SHT30;60894;42.544;1.516;2023-07-24T02:26:53;20.78;67.96
72772;SHT30;60894;42.544;1.516;2023-07-24T02:29:20;20.85;67.65
72772;SHT30;60894;42.544;1.516;2023-07-24T02:31:48;20.92;67.32
72772;SHT30;60894;42.544;1.516;2023-07-24T02:34:15;20.82;67.67
72772;SHT30;60894;42.544;1.516;2023-07-24T02:36:43;20.75;68.42
72772;SHT30;60894;42.544;1.516;2023-07-24T02:39:10;20.89;67.95
72772;SHT30;60894;42.544;1.516;2023-07-24T02:41:37;20.98;67.16
72772;SHT30;60894;42.544;1.516;2023-07-24T02:44:07;20.92;66.47
72772;SHT30;60894;42.544;1.516;2023-07-24T02:46:34;20.95;66.63
72772;SHT30;60894;42.544;1.516;2023-07-24T02:49:01;21.02;65.64
72772;SHT30;60894;42.544;1.516;2023-07-24T02:51:28;21.16;66.12
72772;SHT30;60894;42.544;1.516;2023-07-24T02:53:57;21.26;65.16
72772;SHT30;60894;42.544;1.516;2023-07-24T02:56:24;21.32;64.83
72772;SHT30;60894;42.544;1.516;2023-07-24T02:58:51;21.40;64.61
72772;SHT30;60894;42.544;1.516;2023-07-24T03:01:18;21.55;64.34
72772;SHT30;60894;42.544;1.516;2023-07-24T03:03:45;21.37;63.79
72772;SHT30;60894;42.544;1.516;2023-07-24T03:06:12;21.43;65.39
72772;SHT30;60894;42.544;1.516;2023-07-24T03:08:39;21.65;65.22
72772;SHT30;60894;42.544;1.516;2023-07-24T03:11:07;21.65;66.21
72772;SHT30;60894;42.544;1.516;2023-07-24T03:13:34;21.51;67.67
72772;SHT30;60894;42.544;1.516;2023-07-24T03:16:01;21.34;68.57
72772;SHT30;60894;42.544;1.516;2023-07-24T03:18:28;21.27;69.59
72772;SHT30;60894;42.544;1.516;2023-07-24T03:20:57;21.09;70.54
72772;SHT30;60894;42.544;1.516;2023-07-24T03:23:24;21.12;69.87
72772;SHT30;60894;42.544;1.516;2023-07-24T03:25:51;21.26;68.40
72772;SHT30;60894;42.544;1.516;2023-07-24T03:28:19;21.23;69.25
72772;SHT30;60894;42.544;1.516;2023-07-24T03:30:46;21.04;70.43
72772;SHT30;60894;42.544;1.516;2023-07-24T03:33:14;21.09;69.27
72772;SHT30;60894;42.544;1.516;2023-07-24T03:35:40;21.06;68.13
72772;SHT30;60894;42.544;1.516;2023-07-24T03:38:07;21.32;68.65
72772;SHT30;60894;42.544;1.516;2023-07-24T03:40:34;21.27;69.00
72772;SHT30;60894;42.544;1.516;2023-07-24T03:43:01;21.12;69.83
72772;SHT30;60894;42.544;1.516;2023-07-24T03:45:31;21.22;68.86
72772;SHT30;60894;42.544;1.516;2023-07-24T03:47:58;21.29;68.60
72772;SHT30;60894;42.544;1.516;2023-07-24T03:50:25;20.95;65.48
72772;SHT30;60894;42.544;1.516;2023-07-24T03:52:52;20.81;67.03
72772;SHT30;60894;42.544;1.516;2023-07-24T03:55:19;20.85;65.97
72772;SHT30;60894;42.544;1.516;2023-07-24T03:57:46;20.86;67.10
72772;SHT30;60894;42.544;1.516;2023-07-24T04:00:14;20.72;64.68
72772;SHT30;60894;42.544;1.516;2023-07-24T04:02:42;20.79;65.52
72772;SHT30;60894;42.544;1.516;2023-07-24T04:05:09;20.72;65.42
72772;SHT30;60894;42.544;1.516;2023-07-24T04:07:36;20.75;64.41
72772;SHT30;60894;42.544;1.516;2023-07-24T04:10:04;20.76;66.05
72772;SHT30;60894;42.544;1.516;2023-07-24T04:12:31;20.73;65.85
72772;SHT30;60894;42.544;1.516;2023-07-24T04:14:58;20.72;64.04
72772;SHT30;60894;42.544;1.516;2023-07-24T04:17:25;20.59;63.97
72772;SHT30;60894;42.544;1.516;2023-07-24T04:19:54;20.53;62.66
72772;SHT30;60894;42.544;1.516;2023-07-24T04:22:21;20.38;64.75
72772;SHT30;60894;42.544;1.516;2023-07-24T04:24:48;20.42;66.05
72772;SHT30;60894;42.544;1.516;2023-07-24T04:27:15;20.53;64.10
72772;SHT30;60894;42.544;1.516;2023-07-24T04:29:42;20.32;64.09
72772;SHT30;60894;42.544;1.516;2023-07-24T04:32:09;20.34;63.07
72772;SHT30;60894;42.544;1.516;2023-07-24T04:34:36;20.52;62.37
72772;SHT30;60894;42.544;1.516;2023-07-24T04:37:04;20.58;61.44
72772;SHT30;60894;42.544;1.516;2023-07-24T04:39:31;20.72;61.40
72772;SHT30;60894;42.544;1.516;2023-07-24T04:41:59;20.67;60.52
72772;SHT30;60894;42.544;1.516;2023-07-24T04:44:26;20.61;61.44
72772;SHT30;60894;42.544;1.516;2023-07-24T04:46:53;20.62;61.32
72772;SHT30;60894;42.544;1.516;2023-07-24T04:49:21;20.53;60.77
72772;SHT30;60894;42.544;1.516;2023-07-24T04:51:48;20.64;60.41
72772;SHT30;60894;42.544;1.516;2023-07-24T04:54:17;20.55;60.44
72772;SHT30;60894;42.544;1.516;2023-07-24T04:56:44;20.49;61.60
72772;SHT30;60894;42.544;1.516;2023-07-24T04:59:11;20.45;60.94
72772;SHT30;60894;42.544;1.516;2023-07-24T05:01:38;20.44;61.00
72772;SHT30;60894;42.544;1.516;2023-07-24T05:04:05;20.55;60.73
72772;SHT30;60894;42.544;1.516;2023-07-24T05:06:32;20.47;60.64
72772;SHT30;60894;42.544;1.516;2023-07-24T05:09:00;20.55;60.90
72772;SHT30;60894;42.544;1.516;2023-07-24T05:11:29;20.72;60.00
72772;SHT30;60894;42.544;1.516;2023-07-24T05:13:56;20.72;60.02
72772;SHT30;60894;42.544;1.516;2023-07-24T05:16:23;20.79;59.42
72772;SHT30;60894;42.544;1.516;2023-07-24T05:18:50;20.73;59.31
72772;SHT30;60894;42.544;1.516;2023-07-24T05:21:17;20.62;59.63
72772;SHT30;60894;42.544;1.516;2023-07-24T05:23:44;20.52;59.65
72772;SHT30;60894;42.544;1.516;2023-07-24T05:26:12;20.41;60.76
72772;SHT30;60894;42.544;1.516;2023-07-24T05:28:40;20.53;60.80
72772;SHT30;60894;42.544;1.516;2023-07-24T05:31:07;20.64;60.28
72772;SHT30;60894;42.544;1.516;2023-07-24T05:33:34;20.61;60.12
72772;SHT30;60894;42.544;1.516;2023-07-24T05:36:03;20.58;59.03
72772;SHT30;60894;42.544;1.516;2023-07-24T05:38:30;20.65;60.91
72772;SHT30;60894;42.544;1.516;2023-07-24T05:40:57;20.59;60.10
72772;SHT30;60894;42.544;1.516;2023-07-24T05:43:25;20.68;60.16
72772;SHT30;60894;42.544;1.516;2023-07-24T05:45:55;20.75;61.26
72772;SHT30;60894;42.544;1.516;2023-07-24T05:48:22;20.79;61.16
72772;SHT30;60894;42.544;1.516;2023-07-24T05:50:50;20.88;61.09
72772;SHT30;60894;42.544;1.516;2023-07-24T05:53:17;20.95;60.03
72772;SHT30;60894;42.544;1.516;2023-07-24T05:55:44;20.91;59.07
72772;SHT30;60894;42.544;1.516;2023-07-24T05:58:11;20.79;60.34
72772;SHT30;60894;42.544;1.516;2023-07-24T06:00:38;20.95;59.94
72772;SHT30;60894;42.544;1.516;2023-07-24T06:03:07;21.06;59.65
72772;SHT30;60894;42.544;1.516;2023-07-24T06:05:34;21.22;59.02
72772;SHT30;60894;42.544;1.516;2023-07-24T06:08:01;21.18;59.33
72772;SHT30;60894;42.544;1.516;2023-07-24T06:10:28;21.26;57.79
72772;SHT30;60894;42.544;1.516;2023-07-24T06:12:55;21.24;57.39
72772;SHT30;60894;42.544;1.516;2023-07-24T06:15:22;21.22;59.35
72772;SHT30;60894;42.544;1.516;2023-07-24T06:17:49;21.30;59.64
72772;SHT30;60894;42.544;1.516;2023-07-24T06:20:17;21.40;60.05
72772;SHT30;60894;42.544;1.516;2023-07-24T06:22:44;21.54;58.80
72772;SHT30;60894;42.544;1.516;2023-07-24T06:25:11;21.54;60.24
72772;SHT30;60894;42.544;1.516;2023-07-24T06:27:38;21.71;59.31
72772;SHT30;60894;42.544;1.516;2023-07-24T06:30:06;21.80;59.00
72772;SHT30;60894;42.544;1.516;2023-07-24T06:32:33;21.80;59.31
72772;SHT30;60894;42.544;1.516;2023-07-24T06:35:01;21.90;59.37
72772;SHT30;60894;42.544;1.516;2023-07-24T06:37:29;22.02;59.73
72772;SHT30;60894;42.544;1.516;2023-07-24T06:39:56;22.12;60.21
72772;SHT30;60894;42.544;1.516;2023-07-24T06:42:23;22.22;60.12
72772;SHT30;60894;42.544;1.516;2023-07-24T06:44:50;22.12;66.96
72772;SHT30;60894;42.544;1.516;2023-07-24T06:47:17;22.13;65.86
72772;SHT30;60894;42.544;1.516;2023-07-24T06:49:44;22.28;64.24
72772;SHT30;60894;42.544;1.516;2023-07-24T06:52:12;22.31;66.04
72772;SHT30;60894;42.544;1.516;2023-07-24T06:54:41;22.29;65.33
72772;SHT30;60894;42.544;1.516;2023-07-24T06:57:08;22.48;63.38
72772;SHT30;60894;42.544;1.516;2023-07-24T06:59:35;22.52;63.24
72772;SHT30;60894;42.544;1.516;2023-07-24T07:02:02;22.53;64.46
72772;SHT30;60894;42.544;1.516;2023-07-24T07:04:29;22.59;63.81
72772;SHT30;60894;42.544;1.516;2023-07-24T07:06:56;22.66;63.63
72772;SHT30;60894;42.544;1.516;2023-07-24T07:09:23;22.51;65.89
72772;SHT30;60894;42.544;1.516;2023-07-24T07:11:52;22.56;61.54
72772;SHT30;60894;42.544;1.516;2023-07-24T07:14:19;22.62;63.37
72772;SHT30;60894;42.544;1.516;2023-07-24T07:16:46;22.52;63.94
72772;SHT30;60894;42.544;1.516;2023-07-24T07:19:13;22.60;63.08
72772;SHT30;60894;42.544;1.516;2023-07-24T07:21:40;22.51;65.42
72772;SHT30;60894;42.544;1.516;2023-07-24T07:24:07;22.45;64.89
72772;SHT30;60894;42.544;1.516;2023-07-24T07:26:35;22.55;63.06
72772;SHT30;60894;42.544;1.516;2023-07-24T07:29:03;22.56;64.06
72772;SHT30;60894;42.544;1.516;2023-07-24T07:31:30;22.64;62.15
72772;SHT30;60894;42.544;1.516;2023-07-24T07:33:57;22.69;62.67
72772;SHT30;60894;42.544;1.516;2023-07-24T07:36:24;22.99;59.50
72772;SHT30;60894;42.544;1.516;2023-07-24T07:38:51;23.07;59.41
72772;SHT30;60894;42.544;1.516;2023-07-24T07:41:18;23.03;62.83
72772;SHT30;60894;42.544;1.516;2023-07-24T07:43:45;23.06;61.74
72772;SHT30;60894;42.544;1.516;2023-07-24T07:46:14;23.08;59.99
72772;SHT30;60894;42.544;1.516;2023-07-24T07:48:41;23.23;58.49
72772;SHT30;60894;42.544;1.516;2023-07-24T07:51:08;23.31;58.34
72772;SHT30;60894;42.544;1.516;2023-07-24T07:53:35;23.50;58.20
72772;SHT30;60894;42.544;1.516;2023-07-24T07:56:02;23.69;54.54
72772;SHT30;60894;42.544;1.516;2023-07-24T07:58:29;23.83;53.73
72772;SHT30;60894;42.544;1.516;2023-07-24T08:00:56;23.95;53.29
72772;SHT30;60894;42.544;1.516;2023-07-24T08:03:24;23.96;52.97
72772;SHT30;60894;42.544;1.516;2023-07-24T08:05:51;23.90;52.88
72772;SHT30;60894;42.544;1.516;2023-07-24T08:08:18;23.92;52.03
72772;SHT30;60894;42.544;1.516;2023-07-24T08:10:45;23.89;53.12
72772;SHT30;60894;42.544;1.516;2023-07-24T08:13:12;23.89;53.96
72772;SHT30;60894;42.544;1.516;2023-07-24T08:15:39;23.92;53.40
72772;SHT30;60894;42.544;1.516;2023-07-24T08:18:06;23.96;52.36
72772;SHT30;60894;42.544;1.516;2023-07-24T08:20:36;24.03;48.71
72772;SHT30;60894;42.544;1.516;2023-07-24T08:23:04;24.12;48.49
72772;SHT30;60894;42.544;1.516;2023-07-24T08:25:31;24.06;50.90
72772;SHT30;60894;42.544;1.516;2023-07-24T08:27:58;23.98;50.22
72772;SHT30;60894;42.544;1.516;2023-07-24T08:30:25;23.90;50.01
72772;SHT30;60894;42.544;1.516;2023-07-24T08:32:52;23.98;51.44
72772;SHT30;60894;42.544;1.516;2023-07-24T08:35:19;24.09;47.45
72772;SHT30;60894;42.544;1.516;2023-07-24T08:37:47;24.22;48.10
72772;SHT30;60894;42.544;1.516;2023-07-24T08:40:15;24.20;48.67
72772;SHT30;60894;42.544;1.516;2023-07-24T08:42:43;24.23;47.26
72772;SHT30;60894;42.544;1.516;2023-07-24T08:45:11;24.30;48.79
72772;SHT30;60894;42.544;1.516;2023-07-24T08:47:42;24.39;50.18
72772;SHT30;60894;42.544;1.516;2023-07-24T08:50:09;24.43;49.41
72772;SHT30;60894;42.544;1.516;2023-07-24T08:52:38;24.43;47.64
72772;SHT30;60894;42.544;1.516;2023-07-24T08:55:07;24.56;47.86
72772;SHT30;60894;42.544;1.516;2023-07-24T08:57:34;24.64;48.83
72772;SHT30;60894;42.544;1.516;2023-07-24T09:00:02;24.71;46.04
72772;SHT30;60894;42.544;1.516;2023-07-24T09:02:31;24.85;46.34
72772;SHT30;60894;42.544;1.516;2023-07-24T09:04:58;24.92;47.56
72772;SHT30;60894;42.544;1.516;2023-07-24T09:07:25;25.02;46.72
72772;SHT30;60894;42.544;1.516;2023-07-24T09:09:52;25.12;44.94
72772;SHT30;60894;42.544;1.516;2023-07-24T09:12:22;25.18;42.38
72772;SHT30;60894;42.544;1.516;2023-07-24T09:15:00;25.43;43.66
72772;SHT30;60894;42.544;1.516;2023-07-24T09:17:28;25.61;40.47
72772;SHT30;60894;42.544;1.516;2023-07-24T09:19:56;25.74;41.12
72772;SHT30;60894;42.544;1.516;2023-07-24T09:22:23;25.74;39.56
72772;SHT30;60894;42.544;1.516;2023-07-24T09:24:53;25.92;39.81
72772;SHT30;60894;42.544;1.516;2023-07-24T09:27:25;25.97;40.01
72772;SHT30;60894;42.544;1.516;2023-07-24T09:29:52;25.86;38.40
72772;SHT30;60894;42.544;1.516;2023-07-24T09:32:20;25.79;38.02
72772;SHT30;60894;42.544;1.516;2023-07-24T09:34:48;25.77;39.01
72772;SHT30;60894;42.544;1.516;2023-07-24T09:37:26;26.00;33.48
72772;SHT30;60894;42.544;1.516;2023-07-24T09:39:53;26.01;33.63
72772;SHT30;60894;42.544;1.516;2023-07-24T09:42:32;26.20;34.29
72772;SHT30;60894;42.544;1.516;2023-07-24T09:45:00;26.43;27.88
72772;SHT30;60894;42.544;1.516;2023-07-24T09:47:27;26.55;32.53
72772;SHT30;60894;42.544;1.516;2023-07-24T09:49:55;26.68;31.61
72772;SHT30;60894;42.544;1.516;2023-07-24T09:52:24;26.75;34.92
72772;SHT30;60894;42.544;1.516;2023-07-24T09:54:57;26.72;36.78
72772;SHT30;60894;42.544;1.516;2023-07-24T09:57:26;26.72;34.11
72772;SHT30;60894;42.544;1.516;2023-07-24T09:59:56;26.88;31.38
72772;SHT30;60894;42.544;1.516;2023-07-24T10:02:24;27.32;34.98
72772;SHT30;60894;42.544;1.516;2023-07-24T10:04:51;27.44;34.72
72772;SHT30;60894;42.544;1.516;2023-07-24T10:07:19;27.33;35.60
72772;SHT30;60894;42.544;1.516;2023-07-24T10:09:48;27.67;34.83
72772;SHT30;60894;42.544;1.516;2023-07-24T10:12:17;27.60;33.54
72772;SHT30;60894;42.544;1.516;2023-07-24T10:14:45;27.56;34.01
72772;SHT30;60894;42.544;1.516;2023-07-24T10:17:14;27.57;33.67
72772;SHT30;60894;42.544;1.516;2023-07-24T10:20:02;27.73;33.51
72772;SHT30;60894;42.544;1.516;2023-07-24T10:22:30;27.51;31.77
72772;SHT30;60894;42.544;1.516;2023-07-24T10:24:57;27.84;29.60
72772;SHT30;60894;42.544;1.516;2023-07-24T10:27:24;28.04;31.50
72772;SHT30;60894;42.544;1.516;2023-07-24T10:29:58;28.45;31.67
72772;SHT30;60894;42.544;1.516;2023-07-24T10:32:27;28.63;30.89
72772;SHT30;60894;42.544;1.516;2023-07-24T10:34:59;28.48;29.53
72772;SHT30;60894;42.544;1.516;2023-07-24T10:37:33;28.34;28.73
72772;SHT30;60894;42.544;1.516;2023-07-24T10:40:01;28.63;29.96
72772;SHT30;60894;42.544;1.516;2023-07-24T10:42:29;28.94;28.56
72772;SHT30;60894;42.544;1.516;2023-07-24T10:45:04;29.23;27.53
72772;SHT30;60894;42.544;1.516;2023-07-24T10:47:33;29.45;26.44
72772;SHT30;60894;42.544;1.516;2023-07-24T10:50:00;29.14;24.38
72772;SHT30;60894;42.544;1.516;2023-07-24T10:52:29;29.20;26.75
72772;SHT30;60894;42.544;1.516;2023-07-24T10:54:56;29.41;26.82
72772;SHT30;60894;42.544;1.516;2023-07-24T10:57:25;29.54;27.04
72772;SHT30;60894;42.544;1.516;2023-07-24T10:59:53;29.48;26.92
72772;SHT30;60894;42.544;1.516;2023-07-24T11:02:20;29.20;27.17
72772;SHT30;60894;42.544;1.516;2023-07-24T11:04:49;29.30;27.86
72772;SHT30;60894;42.544;1.516;2023-07-24T11:07:16;29.17;27.39
72772;SHT30;60894;42.544;1.516;2023-07-24T11:09:43;29.31;27.20
72772;SHT30;60894;42.544;1.516;2023-07-24T11:12:12;29.53;26.86
72772;SHT30;60894;42.544;1.516;2023-07-24T11:14:47;29.48;25.63
72772;SHT30;60894;42.544;1.516;2023-07-24T11:17:14;29.89;23.72
72772;SHT30;60894;42.544;1.516;2023-07-24T11:19:41;30.27;23.12
72772;SHT30;60894;42.544;1.516;2023-07-24T11:22:10;30.33;23.49
72772;SHT30;60894;42.544;1.516;2023-07-24T11:24:44;29.90;23.96
72772;SHT30;60894;42.544;1.516;2023-07-24T11:27:13;29.69;24.14
72772;SHT30;60894;42.544;1.516;2023-07-24T11:29:40;30.17;24.34
72772;SHT30;60894;42.544;1.516;2023-07-24T11:32:08;30.39;23.16
72772;SHT30;60894;42.544;1.516;2023-07-24T11:34:35;30.20;23.36
72772;SHT30;60894;42.544;1.516;2023-07-24T11:37:03;30.09;22.86
72772;SHT30;60894;42.544;1.516;2023-07-24T11:39:31;30.57;21.81
72772;SHT30;60894;42.544;1.516;2023-07-24T11:42:00;30.48;22.64
72772;SHT30;60894;42.544;1.516;2023-07-24T11:44:28;30.68;23.30
72772;SHT30;60894;42.544;1.516;2023-07-24T11:47:02;30.53;22.21
72772;SHT30;60894;42.544;1.516;2023-07-24T11:49:29;30.90;23.01
72772;SHT30;60894;42.544;1.516;2023-07-24T11:52:02;30.98;22.59
72772;SHT30;60894;42.544;1.516;2023-07-24T11:54:33;31.11;22.57
72772;SHT30;60894;42.544;1.516;2023-07-24T11:57:00;30.87;22.55
72772;SHT30;60894;42.544;1.516;2023-07-24T11:59:27;31.56;22.13
72772;SHT30;60894;42.544;1.516;2023-07-24T12:01:54;31.43;21.89
72772;SHT30;60894;42.544;1.516;2023-07-24T12:04:21;31.72;21.97
72772;SHT30;60894;42.544;1.516;2023-07-24T12:06:48;31.92;21.87
72772;SHT30;60894;42.544;1.516;2023-07-24T12:09:15;31.92;22.02
72772;SHT30;60894;42.544;1.516;2023-07-24T12:11:44;31.55;21.51
72772;SHT30;60894;42.544;1.516;2023-07-24T12:14:13;32.19;21.99
72772;SHT30;60894;42.544;1.516;2023-07-24T12:16:40;32.09;22.03
72772;SHT30;60894;42.544;1.516;2023-07-24T12:19:07;31.87;22.00
72772;SHT30;60894;42.544;1.516;2023-07-24T12:21:34;30.92;21.97
72772;SHT30;60894;42.544;1.516;2023-07-24T12:24:01;31.56;22.40
72772;SHT30;60894;42.544;1.516;2023-07-24T12:26:28;32.00;21.86
72772;SHT30;60894;42.544;1.516;2023-07-24T12:28:57;31.34;22.68
72772;SHT30;60894;42.544;1.516;2023-07-24T12:31:25;31.53;23.14
72772;SHT30;60894;42.544;1.516;2023-07-24T12:33:53;31.90;23.10
72772;SHT30;60894;42.544;1.516;2023-07-24T12:36:20;31.39;22.97
72772;SHT30;60894;42.544;1.516;2023-07-24T12:38:46;31.72;23.30
72772;SHT30;60894;42.544;1.516;2023-07-24T12:41:14;31.98;21.93
72772;SHT30;60894;42.544;1.516;2023-07-24T12:43:43;32.72;21.63
72772;SHT30;60894;42.544;1.516;2023-07-24T12:46:11;32.57;20.66
72772;SHT30;60894;42.544;1.516;2023-07-24T12:48:38;32.86;20.67
72772;SHT30;60894;42.544;1.516;2023-07-24T12:51:05;32.72;21.04
72772;SHT30;60894;42.544;1.516;2023-07-24T12:53:32;33.12;21.80
72772;SHT30;60894;42.544;1.516;2023-07-24T12:55:59;32.43;22.92
72772;SHT30;60894;42.544;1.516;2023-07-24T12:58:26;31.96;23.90
72772;SHT30;60894;42.544;1.516;2023-07-24T13:00:53;32.13;23.54
72772;SHT30;60894;42.544;1.516;2023-07-24T13:03:22;31.58;23.92
72772;SHT30;60894;42.544;1.516;2023-07-24T13:05:49;31.05;23.75
72772;SHT30;60894;42.544;1.516;2023-07-24T13:08:16;30.87;23.99
72772;SHT30;60894;42.544;1.516;2023-07-24T13:10:47;31.55;23.71
72772;SHT30;60894;42.544;1.516;2023-07-24T13:13:14;31.24;23.89
72772;SHT30;60894;42.544;1.516;2023-07-24T13:15:41;31.25;23.38
72772;SHT30;60894;42.544;1.516;2023-07-24T13:18:08;31.07;23.72
72772;SHT30;60894;42.544;1.516;2023-07-24T13:20:38;31.48;22.97
72772;SHT30;60894;42.544;1.516;2023-07-24T13:23:05;31.41;23.35
72772;SHT30;60894;42.544;1.516;2023-07-24T13:25:32;31.48;23.30
72772;SHT30;60894;42.544;1.516;2023-07-24T13:27:59;31.28;23.72
72772;SHT30;60894;42.544;1.516;2023-07-24T13:30:26;31.49;22.31
72772;SHT30;60894;42.544;1.516;2023-07-24T13:32:53;31.79;21.96
72772;SHT30;60894;42.544;1.516;2023-07-24T13:35:20;31.43;22.39
72772;SHT30;60894;42.544;1.516;2023-07-24T13:37:49;31.70;22.14
72772;SHT30;60894;42.544;1.516;2023-07-24T13:40:16;31.53;22.22
72772;SHT30;60894;42.544;1.516;2023-07-24T13:42:43;32.19;22.33
72772;SHT30;60894;42.544;1.516;2023-07-24T13:45:10;32.14;21.16
72772;SHT30;60894;42.544;1.516;2023-07-24T13:47:37;32.51;20.92
72772;SHT30;60894;42.544;1.516;2023-07-24T13:50:05;31.80;25.26
72772;SHT30;60894;42.544;1.516;2023-07-24T13:52:33;31.77;25.81
72772;SHT30;60894;42.544;1.516;2023-07-24T13:55:01;31.48;26.47
72772;SHT30;60894;42.544;1.516;2023-07-24T13:57:28;31.52;26.46
72772;SHT30;60894;42.544;1.516;2023-07-24T13:59:55;31.77;26.89
72772;SHT30;60894;42.544;1.516;2023-07-24T14:02:22;31.19;28.22
72772;SHT30;60894;42.544;1.516;2023-07-24T14:04:49;31.08;28.30
72772;SHT30;60894;42.544;1.516;2023-07-24T14:07:16;31.22;28.36
72772;SHT30;60894;42.544;1.516;2023-07-24T14:09:44;31.26;28.58
72772;SHT30;60894;42.544;1.516;2023-07-24T14:12:12;30.76;27.28
72772;SHT30;60894;42.544;1.516;2023-07-24T14:14:39;30.91;26.80
72772;SHT30;60894;42.544;1.516;2023-07-24T14:17:06;31.22;28.65
72772;SHT30;60894;42.544;1.516;2023-07-24T14:19:33;31.35;30.49
72772;SHT30;60894;42.544;1.516;2023-07-24T14:22:00;30.20;31.45
72772;SHT30;60894;42.544;1.516;2023-07-24T14:24:28;29.93;32.78
72772;SHT30;60894;42.544;1.516;2023-07-24T14:26:55;30.08;31.52
72772;SHT30;60894;42.544;1.516;2023-07-24T14:29:23;30.32;31.97
72772;SHT30;60894;42.544;1.516;2023-07-24T14:31:50;31.11;31.91
72772;SHT30;60894;42.544;1.516;2023-07-24T14:34:17;30.98;32.54
72772;SHT30;60894;42.544;1.516;2023-07-24T14:36:44;30.59;32.78
72772;SHT30;60894;42.544;1.516;2023-07-24T14:39:11;30.08;33.60
72772;SHT30;60894;42.544;1.516;2023-07-24T14:41:38;30.06;32.63
72772;SHT30;60894;42.544;1.516;2023-07-24T14:44:05;30.32;32.49
72772;SHT30;60894;42.544;1.516;2023-07-24T14:46:34;30.13;32.85
72772;SHT30;60894;42.544;1.516;2023-07-24T14:49:01;29.98;33.05
72772;SHT30;60894;42.544;1.516;2023-07-24T14:51:28;30.08;32.60
72772;SHT30;60894;42.544;1.516;2023-07-24T14:53:55;30.64;31.87
72772;SHT30;60894;42.544;1.516;2023-07-24T14:56:22;30.33;33.18
72772;SHT30;60894;42.544;1.516;2023-07-24T14:58:49;30.94;32.04
72772;SHT30;60894;42.544;1.516;2023-07-24T15:01:16;30.73;31.88
72772;SHT30;60894;42.544;1.516;2023-07-24T15:03:45;30.32;32.82
72772;SHT30;60894;42.544;1.516;2023-07-24T15:06:12;30.95;32.12
72772;SHT30;60894;42.544;1.516;2023-07-24T15:08:39;30.64;32.65
72772;SHT30;60894;42.544;1.516;2023-07-24T15:11:06;29.95;33.13
72772;SHT30;60894;42.544;1.516;2023-07-24T15:13:33;29.58;33.62
72772;SHT30;60894;42.544;1.516;2023-07-24T15:16:00;29.61;32.72
72772;SHT30;60894;42.544;1.516;2023-07-24T15:18:27;29.17;34.18
72772;SHT30;60894;42.544;1.516;2023-07-24T15:20:55;29.44;34.47
72772;SHT30;60894;42.544;1.516;2023-07-24T15:23:22;29.45;34.20
72772;SHT30;60894;42.544;1.516;2023-07-24T15:25:49;29.59;33.12
72772;SHT30;60894;42.544;1.516;2023-07-24T15:28:16;29.62;33.17
72772;SHT30;60894;42.544;1.516;2023-07-24T15:30:43;29.55;32.78
72772;SHT30;60894;42.544;1.516;2023-07-24T15:33:10;29.79;32.01